Flight Briefing for CPX789

Departure Arrival
Changi International Airport (WSSS)
Click to view FAA NOTAMS
Incheon International Airport (RKSI)
Click to view FAA NOTAMS
Departure Time Arrival Time
N/A N/A
Aircraft Distance
MD-11SF 2501nm
Departure METAR Arrival METAR
WSSS 192230Z 04003KT 9000 FEW016 BKN300 26/24 Q1013 NOSIG RKSI 192230Z 30005KT 7000 BKN040 02/M03 Q1024 NOSIG
Suggested Route
TOMAN2A TOMAN L625 MEVIN B462 MJC IKEMA Y62 YURIX Y27 RUSAR Y579 CJU B576 OLMEN OLMEN1P


View recent IFR Routes data
Notes



Charts and Procedures

Charts for WSSS
No chart available
Charts for RKSI
No chart available

Ventusky Weather




{"cat":null,"equip":null,"transponder":null,"pbn":"PBN\/","maxpax":null,"oew":"0.0","mzfw":"0.0","mtow":"0.0","mlw":"0.0","maxfuel":"0.0"} DEVELOPMENTAL TEST USE ONLY